sensor_id;sensor_type;location;lat;lon;timestamp;temperature;humidity
7290;DHT22;63176;52.678;13.250;2023-03-12T00:00:40;1.40;99.90
7290;DHT22;63176;52.678;13.250;2023-03-12T00:03:06;1.40;99.90
7290;DHT22;63176;52.678;13.250;2023-03-12T00:05:32;1.50;99.90
7290;DHT22;63176;52.678;13.250;2023-03-12T00:07:58;1.50;99.90
7290;DHT22;63176;52.678;13.250;2023-03-12T00:10:26;1.40;99.90
7290;DHT22;63176;52.678;13.250;2023-03-12T00:12:52;1.40;99.90
7290;DHT22;63176;52.678;13.250;2023-03-12T00:15:18;1.40;99.90
7290;DHT22;63176;52.678;13.250;2023-03-12T00:17:44;1.40;99.90
7290;DHT22;63176;52.678;13.250;2023-03-12T00:20:10;1.40;99.90
7290;DHT22;63176;52.678;13.250;2023-03-12T00:22:36;1.40;99.90
7290;DHT22;63176;52.678;13.250;2023-03-12T00:25:02;1.40;99.90
7290;DHT22;63176;52.678;13.250;2023-03-12T00:27:28;1.60;99.90
7290;DHT22;63176;52.678;13.250;2023-03-12T00:29:54;1.30;99.90
7290;DHT22;63176;52.678;13.250;2023-03-12T00:32:19;1.40;99.90
7290;DHT22;63176;52.678;13.250;2023-03-12T00:34:53;1.40;99.90
7290;DHT22;63176;52.678;13.250;2023-03-12T00:37:19;1.40;99.90
7290;DHT22;63176;52.678;13.250;2023-03-12T00:39:45;1.50;99.90
7290;DHT22;63176;52.678;13.250;2023-03-12T00:42:11;1.60;99.90
7290;DHT22;63176;52.678;13.250;2023-03-12T00:44:37;1.60;99.90
7290;DHT22;63176;52.678;13.250;2023-03-12T00:47:03;1.60;99.90
7290;DHT22;63176;52.678;13.250;2023-03-12T00:49:28;1.60;99.90
7290;DHT22;63176;52.678;13.250;2023-03-12T00:51:54;1.60;99.90
7290;DHT22;63176;52.678;13.250;2023-03-12T00:54:20;1.60;99.90
7290;DHT22;63176;52.678;13.250;2023-03-12T00:56:46;1.60;99.90
7290;DHT22;63176;52.678;13.250;2023-03-12T00:59:15;1.70;99.90
7290;DHT22;63176;52.678;13.250;2023-03-12T01:01:41;1.60;99.90
7290;DHT22;63176;52.678;13.250;2023-03-12T01:04:07;1.50;99.90
7290;DHT22;63176;52.678;13.250;2023-03-12T01:06:33;1.60;99.90
7290;DHT22;63176;52.678;13.250;2023-03-12T01:09:01;1.50;99.90
7290;DHT22;63176;52.678;13.250;2023-03-12T01:11:27;1.50;99.90
7290;DHT22;63176;52.678;13.250;2023-03-12T01:13:53;1.50;99.90
7290;DHT22;63176;52.678;13.250;2023-03-12T01:16:18;1.50;99.90
7290;DHT22;63176;52.678;13.250;2023-03-12T01:18:44;1.50;99.90
7290;DHT22;63176;52.678;13.250;2023-03-12T01:21:10;1.50;99.90
7290;DHT22;63176;52.678;13.250;2023-03-12T01:23:36;1.40;99.90
7290;DHT22;63176;52.678;13.250;2023-03-12T01:26:02;1.40;99.90
7290;DHT22;63176;52.678;13.250;2023-03-12T01:28:28;1.40;99.90
7290;DHT22;63176;52.678;13.250;2023-03-12T01:30:53;1.30;99.90
7290;DHT22;63176;52.678;13.250;2023-03-12T01:33:19;1.30;99.90
7290;DHT22;63176;52.678;13.250;2023-03-12T01:35:47;1.30;99.90
7290;DHT22;63176;52.678;13.250;2023-03-12T01:38:14;1.40;99.90
7290;DHT22;63176;52.678;13.250;2023-03-12T01:40:41;1.40;99.90
7290;DHT22;63176;52.678;13.250;2023-03-12T01:43:32;1.40;99.90
7290;DHT22;63176;52.678;13.250;2023-03-12T01:48:50;1.30;99.90
7290;DHT22;63176;52.678;13.250;2023-03-12T01:51:18;1.40;99.90
7290;DHT22;63176;52.678;13.250;2023-03-12T01:53:48;1.40;99.90
7290;DHT22;63176;52.678;13.250;2023-03-12T01:56:16;1.30;99.90
7290;DHT22;63176;52.678;13.250;2023-03-12T01:58:46;1.30;99.90
7290;DHT22;63176;52.678;13.250;2023-03-12T02:01:14;1.30;99.90
7290;DHT22;63176;52.678;13.250;2023-03-12T02:03:42;1.30;99.90
7290;DHT22;63176;52.678;13.250;2023-03-12T02:06:12;1.30;99.90
7290;DHT22;63176;52.678;13.250;2023-03-12T02:08:42;1.30;99.90
7290;DHT22;63176;52.678;13.250;2023-03-12T02:11:08;1.30;99.90
7290;DHT22;63176;52.678;13.250;2023-03-12T02:13:34;1.20;99.90
7290;DHT22;63176;52.678;13.250;2023-03-12T02:16:00;1.20;99.90
7290;DHT22;63176;52.678;13.250;2023-03-12T02:18:27;1.10;99.90
7290;DHT22;63176;52.678;13.250;2023-03-12T02:26:31;1.00;99.90
7290;DHT22;63176;52.678;13.250;2023-03-12T02:28:59;0.90;99.90
7290;DHT22;63176;52.678;13.250;2023-03-12T02:31:28;0.90;99.90
7290;DHT22;63176;52.678;13.250;2023-03-12T02:33:57;0.90;99.90
7290;DHT22;63176;52.678;13.250;2023-03-12T02:36:25;0.80;99.90
7290;DHT22;63176;52.678;13.250;2023-03-12T02:38:53;0.80;99.90
7290;DHT22;63176;52.678;13.250;2023-03-12T02:46:33;0.70;99.90
7290;DHT22;63176;52.678;13.250;2023-03-12T02:48:59;0.60;99.90
7290;DHT22;63176;52.678;13.250;2023-03-12T02:51:25;0.60;99.90
7290;DHT22;63176;52.678;13.250;2023-03-12T02:53:51;0.50;99.90
7290;DHT22;63176;52.678;13.250;2023-03-12T02:56:21;0.50;99.90
7290;DHT22;63176;52.678;13.250;2023-03-12T02:58:47;0.40;99.90
7290;DHT22;63176;52.678;13.250;2023-03-12T03:01:13;0.40;99.90
7290;DHT22;63176;52.678;13.250;2023-03-12T03:03:38;0.40;99.90
7290;DHT22;63176;52.678;13.250;2023-03-12T03:06:04;0.40;99.90
7290;DHT22;63176;52.678;13.250;2023-03-12T03:08:30;0.40;99.90
7290;DHT22;63176;52.678;13.250;2023-03-12T03:10:55;0.40;99.90
7290;DHT22;63176;52.678;13.250;2023-03-12T03:13:21;0.30;99.90
7290;DHT22;63176;52.678;13.250;2023-03-12T03:15:47;0.30;99.90
7290;DHT22;63176;52.678;13.250;2023-03-12T03:18:12;0.30;99.90
7290;DHT22;63176;52.678;13.250;2023-03-12T03:20:38;0.30;99.90
7290;DHT22;63176;52.678;13.250;2023-03-12T03:23:04;0.30;99.90
7290;DHT22;63176;52.678;13.250;2023-03-12T03:25:29;0.20;99.90
7290;DHT22;63176;52.678;13.250;2023-03-12T03:27:55;0.20;99.90
7290;DHT22;63176;52.678;13.250;2023-03-12T03:30:21;0.20;99.90
7290;DHT22;63176;52.678;13.250;2023-03-12T03:32:48;0.20;99.90
7290;DHT22;63176;52.678;13.250;2023-03-12T03:35:14;0.20;99.90
7290;DHT22;63176;52.678;13.250;2023-03-12T03:37:40;0.20;99.90
7290;DHT22;63176;52.678;13.250;2023-03-12T03:40:06;0.20;99.90
7290;DHT22;63176;52.678;13.250;2023-03-12T03:42:36;0.10;99.90
7290;DHT22;63176;52.678;13.250;2023-03-12T03:45:01;0.10;99.90
7290;DHT22;63176;52.678;13.250;2023-03-12T03:47:27;0.10;99.90
7290;DHT22;63176;52.678;13.250;2023-03-12T03:49:53;0.00;99.90
7290;DHT22;63176;52.678;13.250;2023-03-12T03:52:18;0.00;99.90
7290;DHT22;63176;52.678;13.250;2023-03-12T03:54:44;0.00;99.90
7290;DHT22;63176;52.678;13.250;2023-03-12T03:57:09;0.00;99.90
7290;DHT22;63176;52.678;13.250;2023-03-12T03:59:35;0.00;99.90
7290;DHT22;63176;52.678;13.250;2023-03-12T04:02:01;0.00;99.90
7290;DHT22;63176;52.678;13.250;2023-03-12T04:04:26;0.00;99.90
7290;DHT22;63176;52.678;13.250;2023-03-12T04:06:53;0.00;99.90
7290;DHT22;63176;52.678;13.250;2023-03-12T04:09:18;-0.10;99.90
7290;DHT22;63176;52.678;13.250;2023-03-12T04:11:44;-0.10;99.90
7290;DHT22;63176;52.678;13.250;2023-03-12T04:14:10;-0.10;99.90
7290;DHT22;63176;52.678;13.250;2023-03-12T04:16:35;-0.20;99.90
7290;DHT22;63176;52.678;13.250;2023-03-12T04:19:01;-0.10;99.90
7290;DHT22;63176;52.678;13.250;2023-03-12T04:21:27;-0.20;99.90
7290;DHT22;63176;52.678;13.250;2023-03-12T04:23:52;-0.10;99.90
7290;DHT22;63176;52.678;13.250;2023-03-12T04:26:18;-0.10;99.90
7290;DHT22;63176;52.678;13.250;2023-03-12T04:28:44;-0.20;99.90
7290;DHT22;63176;52.678;13.250;2023-03-12T04:31:10;-0.20;99.90
7290;DHT22;63176;52.678;13.250;2023-03-12T04:33:38;-0.20;99.90
7290;DHT22;63176;52.678;13.250;2023-03-12T04:36:04;-0.10;99.90
7290;DHT22;63176;52.678;13.250;2023-03-12T04:38:30;-0.20;99.90
7290;DHT22;63176;52.678;13.250;2023-03-12T04:40:57;-0.20;99.90
7290;DHT22;63176;52.678;13.250;2023-03-12T04:43:23;-0.20;99.90
7290;DHT22;63176;52.678;13.250;2023-03-12T04:45:49;-0.20;99.90
7290;DHT22;63176;52.678;13.250;2023-03-12T04:48:14;-0.20;99.90
7290;DHT22;63176;52.678;13.250;2023-03-12T04:50:40;-0.20;99.90
7290;DHT22;63176;52.678;13.250;2023-03-12T04:53:05;-0.20;99.90
7290;DHT22;63176;52.678;13.250;2023-03-12T04:55:31;-0.20;99.90
7290;DHT22;63176;52.678;13.250;2023-03-12T04:57:57;-0.20;99.90
7290;DHT22;63176;52.678;13.250;2023-03-12T05:00:22;-0.20;99.90
7290;DHT22;63176;52.678;13.250;2023-03-12T05:02:48;-0.30;99.90
7290;DHT22;63176;52.678;13.250;2023-03-12T05:05:14;-0.20;99.90
7290;DHT22;63176;52.678;13.250;2023-03-12T05:07:39;-0.20;99.90
7290;DHT22;63176;52.678;13.250;2023-03-12T05:10:05;-0.20;99.90
7290;DHT22;63176;52.678;13.250;2023-03-12T05:12:31;-0.20;99.90
7290;DHT22;63176;52.678;13.250;2023-03-12T05:14:57;-0.20;99.90
7290;DHT22;63176;52.678;13.250;2023-03-12T05:17:22;-0.20;99.90
7290;DHT22;63176;52.678;13.250;2023-03-12T05:19:48;-0.20;99.90
7290;DHT22;63176;52.678;13.250;2023-03-12T05:22:13;-0.20;99.90
7290;DHT22;63176;52.678;13.250;2023-03-12T05:24:39;-0.20;99.90
7290;DHT22;63176;52.678;13.250;2023-03-12T05:27:05;-0.20;99.90
7290;DHT22;63176;52.678;13.250;2023-03-12T05:29:32;-0.20;99.90
7290;DHT22;63176;52.678;13.250;2023-03-12T05:32:03;-0.20;99.90
7290;DHT22;63176;52.678;13.250;2023-03-12T05:34:30;-0.20;99.90
7290;DHT22;63176;52.678;13.250;2023-03-12T05:36:56;-0.20;99.90
7290;DHT22;63176;52.678;13.250;2023-03-12T05:39:22;-0.20;99.90
7290;DHT22;63176;52.678;13.250;2023-03-12T05:41:48;-0.20;99.90
7290;DHT22;63176;52.678;13.250;2023-03-12T05:44:15;-0.30;99.90
7290;DHT22;63176;52.678;13.250;2023-03-12T05:46:42;-0.30;99.90
7290;DHT22;63176;52.678;13.250;2023-03-12T05:49:08;-0.30;99.90
7290;DHT22;63176;52.678;13.250;2023-03-12T05:51:34;-0.30;99.90
7290;DHT22;63176;52.678;13.250;2023-03-12T05:54:00;-0.30;99.90
7290;DHT22;63176;52.678;13.250;2023-03-12T05:56:26;-0.30;99.90
7290;DHT22;63176;52.678;13.250;2023-03-12T05:58:52;-0.20;99.90
7290;DHT22;63176;52.678;13.250;2023-03-12T06:01:25;-0.20;99.90
7290;DHT22;63176;52.678;13.250;2023-03-12T06:03:50;-0.20;99.90
7290;DHT22;63176;52.678;13.250;2023-03-12T06:06:16;0.00;99.90
7290;DHT22;63176;52.678;13.250;2023-03-12T06:08:42;-0.20;99.90
7290;DHT22;63176;52.678;13.250;2023-03-12T06:11:09;-0.10;99.90
7290;DHT22;63176;52.678;13.250;2023-03-12T06:13:35;-0.10;99.90
7290;DHT22;63176;52.678;13.250;2023-03-12T06:16:02;0.00;99.90
7290;DHT22;63176;52.678;13.250;2023-03-12T06:18:29;0.00;99.90
7290;DHT22;63176;52.678;13.250;2023-03-12T06:20:55;0.00;99.90
7290;DHT22;63176;52.678;13.250;2023-03-12T06:23:20;0.10;99.90
7290;DHT22;63176;52.678;13.250;2023-03-12T06:25:46;0.20;99.90
7290;DHT22;63176;52.678;13.250;2023-03-12T06:28:12;0.20;99.90
7290;DHT22;63176;52.678;13.250;2023-03-12T06:30:37;0.20;99.90
7290;DHT22;63176;52.678;13.250;2023-03-12T06:33:03;0.30;99.90
7290;DHT22;63176;52.678;13.250;2023-03-12T06:35:31;0.40;99.90
7290;DHT22;63176;52.678;13.250;2023-03-12T06:37:57;0.40;99.90
7290;DHT22;63176;52.678;13.250;2023-03-12T06:40:22;0.50;99.90
7290;DHT22;63176;52.678;13.250;2023-03-12T06:42:48;0.60;99.90
7290;DHT22;63176;52.678;13.250;2023-03-12T06:45:14;0.70;99.90
7290;DHT22;63176;52.678;13.250;2023-03-12T06:47:39;0.70;99.90
7290;DHT22;63176;52.678;13.250;2023-03-12T06:50:05;0.80;99.90
7290;DHT22;63176;52.678;13.250;2023-03-12T06:52:31;0.80;99.90
7290;DHT22;63176;52.678;13.250;2023-03-12T06:54:57;0.90;99.90
7290;DHT22;63176;52.678;13.250;2023-03-12T06:57:22;0.90;99.90
7290;DHT22;63176;52.678;13.250;2023-03-12T06:59:48;1.00;99.90
7290;DHT22;63176;52.678;13.250;2023-03-12T07:02:14;1.00;99.90
7290;DHT22;63176;52.678;13.250;2023-03-12T07:04:39;1.10;99.90
7290;DHT22;63176;52.678;13.250;2023-03-12T07:07:05;1.10;99.90
7290;DHT22;63176;52.678;13.250;2023-03-12T07:09:32;1.20;99.90
7290;DHT22;63176;52.678;13.250;2023-03-12T07:11:58;1.20;99.90
7290;DHT22;63176;52.678;13.250;2023-03-12T07:14:24;1.20;99.90
7290;DHT22;63176;52.678;13.250;2023-03-12T07:16:49;1.30;99.90
7290;DHT22;63176;52.678;13.250;2023-03-12T07:19:15;1.30;99.90
7290;DHT22;63176;52.678;13.250;2023-03-12T07:21:43;1.40;99.90
7290;DHT22;63176;52.678;13.250;2023-03-12T07:24:09;1.40;99.90
7290;DHT22;63176;52.678;13.250;2023-03-12T07:26:35;1.40;99.90
7290;DHT22;63176;52.678;13.250;2023-03-12T07:29:02;1.50;99.90
7290;DHT22;63176;52.678;13.250;2023-03-12T07:31:28;1.60;99.90
7290;DHT22;63176;52.678;13.250;2023-03-12T07:33:54;1.70;99.90
7290;DHT22;63176;52.678;13.250;2023-03-12T07:36:19;1.80;99.90
7290;DHT22;63176;52.678;13.250;2023-03-12T07:38:45;1.90;99.90
7290;DHT22;63176;52.678;13.250;2023-03-12T07:41:10;1.90;99.90
7290;DHT22;63176;52.678;13.250;2023-03-12T07:43:36;2.00;99.90
7290;DHT22;63176;52.678;13.250;2023-03-12T07:46:02;2.10;99.90
7290;DHT22;63176;52.678;13.250;2023-03-12T07:48:27;2.20;99.90
7290;DHT22;63176;52.678;13.250;2023-03-12T07:50:53;2.60;99.90
7290;DHT22;63176;52.678;13.250;2023-03-12T07:53:19;3.30;99.90
7290;DHT22;63176;52.678;13.250;2023-03-12T07:55:45;4.00;99.90
7290;DHT22;63176;52.678;13.250;2023-03-12T07:58:11;4.00;99.90
7290;DHT22;63176;52.678;13.250;2023-03-12T08:00:40;3.70;99.90
7290;DHT22;63176;52.678;13.250;2023-03-12T08:03:05;3.50;99.90
7290;DHT22;63176;52.678;13.250;2023-03-12T08:05:31;3.40;99.90
7290;DHT22;63176;52.678;13.250;2023-03-12T08:07:57;3.40;99.90
7290;DHT22;63176;52.678;13.250;2023-03-12T08:10:22;3.60;99.90
7290;DHT22;63176;52.678;13.250;2023-03-12T08:12:48;3.70;99.90
7290;DHT22;63176;52.678;13.250;2023-03-12T08:15:15;3.70;99.90
7290;DHT22;63176;52.678;13.250;2023-03-12T08:17:41;3.80;99.90
7290;DHT22;63176;52.678;13.250;2023-03-12T08:20:07;3.70;99.90
7290;DHT22;63176;52.678;13.250;2023-03-12T08:22:35;3.60;99.90
7290;DHT22;63176;52.678;13.250;2023-03-12T08:25:01;3.50;99.90
7290;DHT22;63176;52.678;13.250;2023-03-12T08:27:27;3.40;99.90
7290;DHT22;63176;52.678;13.250;2023-03-12T08:29:52;3.50;99.90
7290;DHT22;63176;52.678;13.250;2023-03-12T08:32:18;3.50;99.90
7290;DHT22;63176;52.678;13.250;2023-03-12T08:34:44;3.50;99.90
7290;DHT22;63176;52.678;13.250;2023-03-12T08:37:09;3.50;99.90
7290;DHT22;63176;52.678;13.250;2023-03-12T08:39:35;3.50;99.90
7290;DHT22;63176;52.678;13.250;2023-03-12T08:42:01;3.60;99.90
7290;DHT22;63176;52.678;13.250;2023-03-12T08:44:27;3.70;99.90
7290;DHT22;63176;52.678;13.250;2023-03-12T08:46:53;3.80;99.90
7290;DHT22;63176;52.678;13.250;2023-03-12T08:49:19;3.80;99.90
7290;DHT22;63176;52.678;13.250;2023-03-12T08:51:46;3.90;99.90
7290;DHT22;63176;52.678;13.250;2023-03-12T08:54:12;4.00;99.90
7290;DHT22;63176;52.678;13.250;2023-03-12T08:56:37;4.20;99.90
7290;DHT22;63176;52.678;13.250;2023-03-12T08:59:07;4.30;99.90
7290;DHT22;63176;52.678;13.250;2023-03-12T09:01:33;4.50;99.90
7290;DHT22;63176;52.678;13.250;2023-03-12T09:03:59;4.50;99.90
7290;DHT22;63176;52.678;13.250;2023-03-12T09:06:26;4.80;99.90
7290;DHT22;63176;52.678;13.250;2023-03-12T09:08:52;5.20;99.90
7290;DHT22;63176;52.678;13.250;2023-03-12T09:11:18;5.40;99.90
7290;DHT22;63176;52.678;13.250;2023-03-12T09:13:44;5.60;99.90
7290;DHT22;63176;52.678;13.250;2023-03-12T09:16:09;5.80;99.90
7290;DHT22;63176;52.678;13.250;2023-03-12T09:18:35;6.40;99.90
7290;DHT22;63176;52.678;13.250;2023-03-12T09:21:01;6.50;99.90
7290;DHT22;63176;52.678;13.250;2023-03-12T09:23:27;6.30;99.90
7290;DHT22;63176;52.678;13.250;2023-03-12T09:25:54;6.10;99.90
7290;DHT22;63176;52.678;13.250;2023-03-12T09:28:20;6.10;99.90
7290;DHT22;63176;52.678;13.250;2023-03-12T09:30:46;6.10;99.90
7290;DHT22;63176;52.678;13.250;2023-03-12T09:33:12;6.20;99.90
7290;DHT22;63176;52.678;13.250;2023-03-12T09:35:39;6.20;99.90
7290;DHT22;63176;52.678;13.250;2023-03-12T09:38:06;6.50;99.90
7290;DHT22;63176;52.678;13.250;2023-03-12T09:40:33;6.50;99.90
7290;DHT22;63176;52.678;13.250;2023-03-12T09:43:15;6.60;99.90
7290;DHT22;63176;52.678;13.250;2023-03-12T09:45:44;6.50;99.90
7290;DHT22;63176;52.678;13.250;2023-03-12T09:48:32;6.40;99.90
7290;DHT22;63176;52.678;13.250;2023-03-12T09:51:35;6.20;99.90
7290;DHT22;63176;52.678;13.250;2023-03-12T09:53:58;6.10;99.90
7290;DHT22;63176;52.678;13.250;2023-03-12T09:56:25;6.00;99.90
7290;DHT22;63176;52.678;13.250;2023-03-12T09:58:51;6.10;99.90
7290;DHT22;63176;52.678;13.250;2023-03-12T10:01:35;6.20;99.90
7290;DHT22;63176;52.678;13.250;2023-03-12T10:04:17;6.20;99.90
7290;DHT22;63176;52.678;13.250;2023-03-12T10:12:37;6.50;99.90
7290;DHT22;63176;52.678;13.250;2023-03-12T10:20:26;6.60;99.90
7290;DHT22;63176;52.678;13.250;2023-03-12T10:22:59;6.60;99.90
7290;DHT22;63176;52.678;13.250;2023-03-12T10:28:12;7.10;99.90
7290;DHT22;63176;52.678;13.250;2023-03-12T10:30:47;7.60;99.90
7290;DHT22;63176;52.678;13.250;2023-03-12T10:33:16;8.00;99.90
7290;DHT22;63176;52.678;13.250;2023-03-12T10:35:42;8.60;99.90
7290;DHT22;63176;52.678;13.250;2023-03-12T10:38:19;9.20;99.90
7290;DHT22;63176;52.678;13.250;2023-03-12T10:40:46;10.00;99.90
7290;DHT22;63176;52.678;13.250;2023-03-12T10:43:12;10.30;99.90
7290;DHT22;63176;52.678;13.250;2023-03-12T10:48:39;9.70;99.90
7290;DHT22;63176;52.678;13.250;2023-03-12T10:51:06;9.80;99.90
7290;DHT22;63176;52.678;13.250;2023-03-12T10:53:34;9.70;99.90
7290;DHT22;63176;52.678;13.250;2023-03-12T10:56:07;9.40;99.90
7290;DHT22;63176;52.678;13.250;2023-03-12T10:58:39;9.00;99.90
7290;DHT22;63176;52.678;13.250;2023-03-12T11:01:20;8.80;99.90
7290;DHT22;63176;52.678;13.250;2023-03-12T11:03:46;8.70;99.90
7290;DHT22;63176;52.678;13.250;2023-03-12T11:06:33;8.60;99.90
7290;DHT22;63176;52.678;13.250;2023-03-12T11:09:06;8.50;99.90
7290;DHT22;63176;52.678;13.250;2023-03-12T11:11:39;8.50;99.90
7290;DHT22;63176;52.678;13.250;2023-03-12T11:14:20;8.50;99.90
7290;DHT22;63176;52.678;13.250;2023-03-12T11:16:48;8.40;99.90
7290;DHT22;63176;52.678;13.250;2023-03-12T11:19:32;8.30;99.90
7290;DHT22;63176;52.678;13.250;2023-03-12T11:22:00;8.50;99.90
7290;DHT22;63176;52.678;13.250;2023-03-12T11:24:27;8.80;99.90
7290;DHT22;63176;52.678;13.250;2023-03-12T11:29:47;9.70;99.90
7290;DHT22;63176;52.678;13.250;2023-03-12T11:34:53;9.90;99.90
7290;DHT22;63176;52.678;13.250;2023-03-12T11:56:59;7.90;99.90
7290;DHT22;63176;52.678;13.250;2023-03-12T11:59:33;7.80;99.90
7290;DHT22;63176;52.678;13.250;2023-03-12T12:08:01;7.80;99.90
7290;DHT22;63176;52.678;13.250;2023-03-12T12:11:03;7.70;99.90
7290;DHT22;63176;52.678;13.250;2023-03-12T12:18:43;7.70;99.90
7290;DHT22;63176;52.678;13.250;2023-03-12T12:26:13;7.60;99.90
7290;DHT22;63176;52.678;13.250;2023-03-12T12:32:03;7.50;99.90
7290;DHT22;63176;52.678;13.250;2023-03-12T12:34:44;7.40;99.90
7290;DHT22;63176;52.678;13.250;2023-03-12T12:45:41;7.40;99.90
7290;DHT22;63176;52.678;13.250;2023-03-12T12:50:38;7.60;99.90
7290;DHT22;63176;52.678;13.250;2023-03-12T12:53:24;7.70;99.90
7290;DHT22;63176;52.678;13.250;2023-03-12T13:01:19;7.80;99.90
7290;DHT22;63176;52.678;13.250;2023-03-12T13:03:45;7.90;99.90
7290;DHT22;63176;52.678;13.250;2023-03-12T13:06:11;7.80;99.90
7290;DHT22;63176;52.678;13.250;2023-03-12T13:16:43;7.20;99.90
7290;DHT22;63176;52.678;13.250;2023-03-12T13:31:58;6.90;99.90
7290;DHT22;63176;52.678;13.250;2023-03-12T13:37:01;6.80;99.90
7290;DHT22;63176;52.678;13.250;2023-03-12T13:41:57;6.80;99.90
7290;DHT22;63176;52.678;13.250;2023-03-12T13:47:00;6.90;99.90
7290;DHT22;63176;52.678;13.250;2023-03-12T13:50:19;6.90;99.90
7290;DHT22;63176;52.678;13.250;2023-03-12T13:57:44;6.90;99.90
7290;DHT22;63176;52.678;13.250;2023-03-12T14:00:23;6.90;99.90
7290;DHT22;63176;52.678;13.250;2023-03-12T14:05:32;6.80;99.90
7290;DHT22;63176;52.678;13.250;2023-03-12T14:08:10;6.80;99.90
7290;DHT22;63176;52.678;13.250;2023-03-12T14:16:56;6.60;99.90
7290;DHT22;63176;52.678;13.250;2023-03-12T14:19:28;6.50;99.90
7290;DHT22;63176;52.678;13.250;2023-03-12T14:21:56;6.50;99.90
7290;DHT22;63176;52.678;13.250;2023-03-12T14:24:27;6.50;99.90
7290;DHT22;63176;52.678;13.250;2023-03-12T14:26:55;6.40;99.90
7290;DHT22;63176;52.678;13.250;2023-03-12T14:29:34;6.40;99.90
7290;DHT22;63176;52.678;13.250;2023-03-12T14:32:04;6.40;99.90
7290;DHT22;63176;52.678;13.250;2023-03-12T14:34:38;6.40;99.90
7290;DHT22;63176;52.678;13.250;2023-03-12T14:37:26;6.40;99.90
7290;DHT22;63176;52.678;13.250;2023-03-12T14:40:33;6.30;99.90
7290;DHT22;63176;52.678;13.250;2023-03-12T14:42:47;6.30;99.90
7290;DHT22;63176;52.678;13.250;2023-03-12T14:45:17;6.30;99.90
7290;DHT22;63176;52.678;13.250;2023-03-12T14:47:45;6.20;99.90
7290;DHT22;63176;52.678;13.250;2023-03-12T14:50:27;6.20;99.90
7290;DHT22;63176;52.678;13.250;2023-03-12T14:52:55;6.10;99.90
7290;DHT22;63176;52.678;13.250;2023-03-12T14:55:25;6.10;99.90
7290;DHT22;63176;52.678;13.250;2023-03-12T14:58:05;6.10;99.90
7290;DHT22;63176;52.678;13.250;2023-03-12T15:00:31;6.10;99.90
7290;DHT22;63176;52.678;13.250;2023-03-12T15:03:02;6.00;99.90
7290;DHT22;63176;52.678;13.250;2023-03-12T15:05:28;6.00;99.90
7290;DHT22;63176;52.678;13.250;2023-03-12T15:08:00;6.00;99.90
7290;DHT22;63176;52.678;13.250;2023-03-12T15:10:27;6.00;99.90
7290;DHT22;63176;52.678;13.250;2023-03-12T15:12:55;6.00;99.90
7290;DHT22;63176;52.678;13.250;2023-03-12T15:15:41;5.90;99.90
7290;DHT22;63176;52.678;13.250;2023-03-12T15:18:31;5.90;99.90
7290;DHT22;63176;52.678;13.250;2023-03-12T15:20:59;5.90;99.90
7290;DHT22;63176;52.678;13.250;2023-03-12T15:23:29;5.80;99.90
7290;DHT22;63176;52.678;13.250;2023-03-12T15:28:39;5.80;99.90
7290;DHT22;63176;52.678;13.250;2023-03-12T15:31:13;5.70;99.90
7290;DHT22;63176;52.678;13.250;2023-03-12T15:33:41;5.70;99.90
7290;DHT22;63176;52.678;13.250;2023-03-12T15:39:03;5.60;99.90
7290;DHT22;63176;52.678;13.250;2023-03-12T15:41:43;5.50;99.90
7290;DHT22;63176;52.678;13.250;2023-03-12T15:44:24;5.50;99.90
7290;DHT22;63176;52.678;13.250;2023-03-12T15:47:09;5.50;99.90
7290;DHT22;63176;52.678;13.250;2023-03-12T15:49:37;5.40;99.90
7290;DHT22;63176;52.678;13.250;2023-03-12T15:57:44;5.30;99.90
7290;DHT22;63176;52.678;13.250;2023-03-12T16:05:15;5.30;99.90
7290;DHT22;63176;52.678;13.250;2023-03-12T16:07:41;5.20;99.90
7290;DHT22;63176;52.678;13.250;2023-03-12T16:10:13;5.30;99.90
7290;DHT22;63176;52.678;13.250;2023-03-12T16:12:41;5.20;99.90
7290;DHT22;63176;52.678;13.250;2023-03-12T16:15:13;5.20;99.90
7290;DHT22;63176;52.678;13.250;2023-03-12T16:17:39;5.20;99.90
7290;DHT22;63176;52.678;13.250;2023-03-12T16:20:07;5.20;99.90
7290;DHT22;63176;52.678;13.250;2023-03-12T16:22:34;5.10;99.90
7290;DHT22;63176;52.678;13.250;2023-03-12T16:25:00;5.10;99.90
7290;DHT22;63176;52.678;13.250;2023-03-12T16:27:25;5.10;99.90
7290;DHT22;63176;52.678;13.250;2023-03-12T16:29:51;5.00;99.90
7290;DHT22;63176;52.678;13.250;2023-03-12T16:32:17;5.10;99.90
7290;DHT22;63176;52.678;13.250;2023-03-12T16:34:43;5.00;99.90
7290;DHT22;63176;52.678;13.250;2023-03-12T16:37:11;4.90;99.90
7290;DHT22;63176;52.678;13.250;2023-03-12T16:39:37;5.00;99.90
7290;DHT22;63176;52.678;13.250;2023-03-12T16:42:23;4.90;99.90
7290;DHT22;63176;52.678;13.250;2023-03-12T16:44:49;4.90;99.90
7290;DHT22;63176;52.678;13.250;2023-03-12T16:47:15;4.90;99.90
7290;DHT22;63176;52.678;13.250;2023-03-12T16:49:42;4.90;99.90
7290;DHT22;63176;52.678;13.250;2023-03-12T16:52:26;4.90;99.90
7290;DHT22;63176;52.678;13.250;2023-03-12T16:54:52;4.80;99.90
7290;DHT22;63176;52.678;13.250;2023-03-12T16:57:28;4.70;99.90
7290;DHT22;63176;52.678;13.250;2023-03-12T16:59:56;4.60;99.90
7290;DHT22;63176;52.678;13.250;2023-03-12T17:02:22;4.60;99.90
7290;DHT22;63176;52.678;13.250;2023-03-12T17:04:47;4.60;99.90
7290;DHT22;63176;52.678;13.250;2023-03-12T17:07:15;4.50;99.90
7290;DHT22;63176;52.678;13.250;2023-03-12T17:09:41;4.50;99.90
7290;DHT22;63176;52.678;13.250;2023-03-12T17:12:21;4.50;99.90
7290;DHT22;63176;52.678;13.250;2023-03-12T17:14:49;4.50;99.90
7290;DHT22;63176;52.678;13.250;2023-03-12T17:17:16;4.40;99.90
7290;DHT22;63176;52.678;13.250;2023-03-12T17:19:41;4.40;99.90
7290;DHT22;63176;52.678;13.250;2023-03-12T17:22:07;4.40;99.90
7290;DHT22;63176;52.678;13.250;2023-03-12T17:24:33;4.40;99.90
7290;DHT22;63176;52.678;13.250;2023-03-12T17:26:59;4.30;99.90
7290;DHT22;63176;52.678;13.250;2023-03-12T17:29:25;4.30;99.90
7290;DHT22;63176;52.678;13.250;2023-03-12T17:31:51;4.30;99.90
7290;DHT22;63176;52.678;13.250;2023-03-12T17:34:16;4.30;99.90
7290;DHT22;63176;52.678;13.250;2023-03-12T17:36:42;4.30;99.90
7290;DHT22;63176;52.678;13.250;2023-03-12T17:39:08;4.30;99.90
7290;DHT22;63176;52.678;13.250;2023-03-12T17:41:34;4.30;99.90
7290;DHT22;63176;52.678;13.250;2023-03-12T17:43:59;4.40;99.90
7290;DHT22;63176;52.678;13.250;2023-03-12T17:46:29;4.30;99.90
7290;DHT22;63176;52.678;13.250;2023-03-12T17:48:55;4.40;99.90
7290;DHT22;63176;52.678;13.250;2023-03-12T17:51:22;4.30;99.90
7290;DHT22;63176;52.678;13.250;2023-03-12T17:53:48;4.30;99.90
7290;DHT22;63176;52.678;13.250;2023-03-12T17:56:13;4.30;99.90
7290;DHT22;63176;52.678;13.250;2023-03-12T17:58:42;4.30;99.90
7290;DHT22;63176;52.678;13.250;2023-03-12T18:01:08;4.30;99.90
7290;DHT22;63176;52.678;13.250;2023-03-12T18:03:34;4.30;99.90
7290;DHT22;63176;52.678;13.250;2023-03-12T18:06:00;4.20;99.90
7290;DHT22;63176;52.678;13.250;2023-03-12T18:08:26;4.20;99.90
7290;DHT22;63176;52.678;13.250;2023-03-12T18:10:52;4.20;99.90
7290;DHT22;63176;52.678;13.250;2023-03-12T18:13:17;4.30;99.90
7290;DHT22;63176;52.678;13.250;2023-03-12T18:15:50;4.20;99.90
7290;DHT22;63176;52.678;13.250;2023-03-12T18:18:16;4.20;99.90
7290;DHT22;63176;52.678;13.250;2023-03-12T18:20:43;4.20;99.90